Time;durP1;ratioP1;P1;durP2;ratioP2;P2;SDS_P1;SDS_P2;PMS_P1;PMS_P2;Temp;Humidity;BMP_temperature;BMP_pressure;BME280_temperature;BME280_humidity;BME280_pressure;Samples;Min_cycle;Max_cycle;Signal;HPM_P1;HPM_P2
2024/01/10 00:02:01;;;;;;;5.75;4.00;;;;;;;;;;4995538;28;20536;-78
2024/01/10 00:04:27;;;;;;;6.40;5.47;;;;;;;;;;5007532;28;20400;-77
2024/01/10 00:06:53;;;;;;;6.88;4.75;;;;;;;;;;5008259;28;20050;-76
2024/01/10 00:09:19;;;;;;;7.25;4.63;;;;;;;;;;5008619;28;20100;-76
2024/01/10 00:11:44;;;;;;;6.50;3.67;;;;;;;;;;5008074;28;20045;-77
2024/01/10 00:14:10;;;;;;;7.30;5.15;;;;;;;;;;5008602;28;20033;-77
2024/01/10 00:16:37;;;;;;;5.80;4.20;;;;;;;;;;5007898;28;20029;-77
2024/01/10 00:19:03;;;;;;;8.00;4.95;;;;;;;;;;5006407;28;20606;-77
2024/01/10 00:21:29;;;;;;;7.80;4.80;;;;;;;;;;5008339;28;20529;-77
2024/01/10 00:23:57;;;;;;;12.20;5.18;;;;;;;;;;5007144;28;20025;-75
2024/01/10 00:26:23;;;;;;;8.63;4.60;;;;;;;;;;5009675;28;20062;-76
2024/01/10 00:28:49;;;;;;;6.05;4.57;;;;;;;;;;5009554;28;20034;-77
2024/01/10 00:31:16;;;;;;;7.07;5.10;;;;;;;;;;5008334;28;20026;-77
2024/01/10 00:33:42;;;;;;;8.50;5.38;;;;;;;;;;5007854;28;20128;-77
2024/01/10 00:36:07;;;;;;;8.13;4.57;;;;;;;;;;5009688;28;20093;-77
2024/01/10 00:38:34;;;;;;;7.30;4.57;;;;;;;;;;5007502;28;20037;-77
2024/01/10 00:41:02;;;;;;;8.32;4.90;;;;;;;;;;5009002;28;20396;-77
2024/01/10 00:43:29;;;;;;;7.80;4.80;;;;;;;;;;5007691;28;20056;-77
2024/01/10 00:45:55;;;;;;;7.15;3.78;;;;;;;;;;5009137;28;20391;-76
2024/01/10 00:48:21;;;;;;;6.35;4.30;;;;;;;;;;5010442;28;20038;-76
2024/01/10 00:50:47;;;;;;;7.03;5.03;;;;;;;;;;5010961;28;20037;-77
2024/01/10 00:53:13;;;;;;;6.40;4.13;;;;;;;;;;5017227;28;20029;-77
2024/01/10 00:55:39;;;;;;;6.75;4.97;;;;;;;;;;5030523;28;20407;-81
2024/01/10 00:58:07;;;;;;;7.57;5.10;;;;;;;;;;5014842;28;20060;-80
2024/01/10 01:00:33;;;;;;;9.02;5.40;;;;;;;;;;5033620;28;20065;-79
2024/01/10 01:02:59;;;;;;;7.80;4.25;;;;;;;;;;5032378;28;20089;-80
2024/01/10 01:05:26;;;;;;;6.82;4.82;;;;;;;;;;5034501;28;20033;-80
2024/01/10 01:07:53;;;;;;;6.93;4.68;;;;;;;;;;5032743;28;20030;-79
2024/01/10 01:10:20;;;;;;;8.70;4.68;;;;;;;;;;5032325;28;20602;-79
2024/01/10 01:12:48;;;;;;;7.32;4.97;;;;;;;;;;5032542;28;20033;-80
2024/01/10 01:15:17;;;;;;;7.53;4.85;;;;;;;;;;5032710;28;20104;-80
2024/01/10 01:17:43;;;;;;;7.53;4.53;;;;;;;;;;5033583;28;20037;-79
2024/01/10 01:20:09;;;;;;;7.65;4.32;;;;;;;;;;5032276;28;20047;-79
2024/01/10 01:22:36;;;;;;;8.38;5.13;;;;;;;;;;5032982;28;20029;-79
2024/01/10 01:25:02;;;;;;;7.57;4.70;;;;;;;;;;5033280;28;20034;-80
2024/01/10 01:27:28;;;;;;;7.15;4.90;;;;;;;;;;5033309;28;20056;-79
2024/01/10 01:29:53;;;;;;;7.53;5.07;;;;;;;;;;5033062;28;20042;-81
2024/01/10 01:32:19;;;;;;;8.48;4.93;;;;;;;;;;5033451;28;20029;-80
2024/01/10 01:34:46;;;;;;;8.05;4.80;;;;;;;;;;5032023;28;20048;-80
2024/01/10 01:37:13;;;;;;;8.10;4.78;;;;;;;;;;5032632;28;20034;-80
2024/01/10 01:39:39;;;;;;;7.85;4.68;;;;;;;;;;5034165;28;20022;-81
2024/01/10 01:42:04;;;;;;;7.53;4.60;;;;;;;;;;5033911;28;20041;-81
2024/01/10 01:44:31;;;;;;;7.20;4.25;;;;;;;;;;5032163;28;20025;-80
2024/01/10 01:46:59;;;;;;;9.27;5.63;;;;;;;;;;5032730;28;20021;-81
2024/01/10 01:49:25;;;;;;;9.10;5.45;;;;;;;;;;5034052;28;20172;-79
2024/01/10 01:51:52;;;;;;;10.40;4.32;;;;;;;;;;5033640;28;20130;-80
2024/01/10 01:54:19;;;;;;;8.13;4.53;;;;;;;;;;5015568;28;20048;-79
2024/01/10 01:56:46;;;;;;;5.72;4.00;;;;;;;;;;5033422;28;20032;-81
2024/01/10 01:59:12;;;;;;;7.22;4.03;;;;;;;;;;5033471;28;20160;-81
2024/01/10 02:01:39;;;;;;;7.13;4.47;;;;;;;;;;5032892;28;20116;-81
2024/01/10 02:04:04;;;;;;;13.45;4.65;;;;;;;;;;5032755;28;20041;-81
2024/01/10 02:06:30;;;;;;;8.60;4.93;;;;;;;;;;5031445;28;20046;-81
2024/01/10 02:08:57;;;;;;;8.18;4.18;;;;;;;;;;5031298;28;20037;-81
2024/01/10 02:11:24;;;;;;;6.65;4.00;;;;;;;;;;5014846;28;20499;-81
2024/01/10 02:13:55;;;;;;;13.23;4.93;;;;;;;;;;5032334;28;20052;-81
2024/01/10 02:16:24;;;;;;;7.15;4.57;;;;;;;;;;5031210;28;20033;-81
2024/01/10 02:18:51;;;;;;;7.95;4.50;;;;;;;;;;5031265;28;20492;-80
2024/01/10 02:21:21;;;;;;;6.80;4.30;;;;;;;;;;5032429;28;20074;-81
2024/01/10 02:23:47;;;;;;;9.00;4.55;;;;;;;;;;5031108;28;20041;-82
2024/01/10 02:26:15;;;;;;;14.43;5.20;;;;;;;;;;5012032;28;20033;-80
2024/01/10 02:28:41;;;;;;;7.78;4.45;;;;;;;;;;5010927;28;20057;-82
2024/01/10 02:31:07;;;;;;;10.05;5.88;;;;;;;;;;5012191;28;20544;-82
2024/01/10 02:33:36;;;;;;;8.18;4.60;;;;;;;;;;5012115;28;20021;-81
2024/01/10 02:36:02;;;;;;;6.88;4.38;;;;;;;;;;5011128;28;20037;-79
2024/01/10 02:38:28;;;;;;;9.73;5.53;;;;;;;;;;5010614;28;20579;-82
2024/01/10 02:40:56;;;;;;;11.32;5.35;;;;;;;;;;5010804;28;20057;-81
2024/01/10 02:43:21;;;;;;;10.45;6.60;;;;;;;;;;5010813;28;20068;-79
2024/01/10 02:45:48;;;;;;;12.77;6.40;;;;;;;;;;5011427;28;20041;-80
2024/01/10 02:48:14;;;;;;;13.70;6.53;;;;;;;;;;5026549;28;20479;-80
2024/01/10 02:50:40;;;;;;;11.25;6.63;;;;;;;;;;5010711;28;20042;-82
2024/01/10 02:53:06;;;;;;;8.60;5.90;;;;;;;;;;4995275;28;20030;-81
2024/01/10 02:55:32;;;;;;;10.35;6.38;;;;;;;;;;5012048;28;20033;-82
2024/01/10 02:57:57;;;;;;;11.73;6.32;;;;;;;;;;5011293;28;20124;-81
2024/01/10 03:00:23;;;;;;;11.18;5.90;;;;;;;;;;4994853;28;20038;-79
2024/01/10 03:02:50;;;;;;;10.65;5.82;;;;;;;;;;5012673;28;20026;-82
2024/01/10 03:05:15;;;;;;;9.75;6.03;;;;;;;;;;5010967;28;20061;-81
2024/01/10 03:07:43;;;;;;;14.77;6.88;;;;;;;;;;5011079;28;20034;-81
2024/01/10 03:10:09;;;;;;;15.70;7.05;;;;;;;;;;5010857;28;20026;-80
2024/01/10 03:12:37;;;;;;;14.80;8.10;;;;;;;;;;5012508;28;20034;-80
2024/01/10 03:15:06;;;;;;;15.02;7.38;;;;;;;;;;4995046;28;20096;-79
2024/01/10 03:17:33;;;;;;;18.58;8.10;;;;;;;;;;5009919;28;20034;-80
2024/01/10 03:19:59;;;;;;;18.10;7.88;;;;;;;;;;5010348;28;20080;-80
2024/01/10 03:22:25;;;;;;;18.02;8.50;;;;;;;;;;5009849;28;20034;-81
2024/01/10 03:24:52;;;;;;;15.85;9.20;;;;;;;;;;5012010;28;20033;-81
2024/01/10 03:27:17;;;;;;;14.98;9.18;;;;;;;;;;5010382;28;20069;-80
2024/01/10 03:29:44;;;;;;;14.68;8.77;;;;;;;;;;5011872;28;20029;-81
2024/01/10 03:32:10;;;;;;;16.58;8.25;;;;;;;;;;5010641;28;20052;-81
2024/01/10 03:34:37;;;;;;;14.07;7.60;;;;;;;;;;5010840;28;20026;-81
2024/01/10 03:37:03;;;;;;;23.25;10.27;;;;;;;;;;5010710;28;20044;-80
2024/01/10 03:39:30;;;;;;;20.50;8.88;;;;;;;;;;5012490;28;20475;-81
2024/01/10 03:41:57;;;;;;;13.75;8.05;;;;;;;;;;5012038;28;20030;-79
2024/01/10 03:44:23;;;;;;;28.50;10.15;;;;;;;;;;5011549;28;20423;-80
2024/01/10 03:46:51;;;;;;;19.63;9.95;;;;;;;;;;5013390;28;20030;-78
2024/01/10 03:49:18;;;;;;;21.33;8.95;;;;;;;;;;5015240;28;20160;-81
2024/01/10 03:51:44;;;;;;;20.05;8.82;;;;;;;;;;5013983;28;20029;-79
2024/01/10 03:54:12;;;;;;;17.90;8.93;;;;;;;;;;5014663;28;20072;-80
2024/01/10 03:56:39;;;;;;;30.08;9.98;;;;;;;;;;5015598;28;20112;-81
2024/01/10 03:59:07;;;;;;;29.75;10.35;;;;;;;;;;5009875;28;20045;-81
2024/01/10 04:01:35;;;;;;;21.83;10.85;;;;;;;;;;5015312;28;20046;-81
2024/01/10 04:04:00;;;;;;;22.38;10.98;;;;;;;;;;5014578;28;20056;-81
2024/01/10 04:06:27;;;;;;;35.92;12.68;;;;;;;;;;5015146;28;20471;-80
2024/01/10 04:08:53;;;;;;;30.33;12.23;;;;;;;;;;5013742;28;20038;-81
2024/01/10 04:11:22;;;;;;;28.63;12.27;;;;;;;;;;4980073;28;20415;-81
2024/01/10 04:13:50;;;;;;;30.40;13.13;;;;;;;;;;5013344;28;20105;-81
2024/01/10 04:16:16;;;;;;;28.38;12.73;;;;;;;;;;5013302;28;20124;-81
2024/01/10 04:18:44;;;;;;;30.73;13.70;;;;;;;;;;5012739;28;20041;-81
2024/01/10 04:21:10;;;;;;;31.73;13.65;;;;;;;;;;5013852;28;20041;-81
2024/01/10 04:23:36;;;;;;;26.80;12.55;;;;;;;;;;5014455;28;20506;-81
2024/01/10 04:26:03;;;;;;;22.52;11.65;;;;;;;;;;5012570;28;20034;-80
2024/01/10 04:28:28;;;;;;;24.67;12.38;;;;;;;;;;5006185;28;20026;-81
2024/01/10 04:30:57;;;;;;;29.83;11.32;;;;;;;;;;5013530;28;20032;-81
2024/01/10 04:33:25;;;;;;;22.90;10.45;;;;;;;;;;5012434;28;20034;-81
2024/01/10 04:35:51;;;;;;;25.23;10.73;;;;;;;;;;5013975;28;20568;-81
2024/01/10 04:38:16;;;;;;;17.33;9.48;;;;;;;;;;4995336;28;20121;-81
2024/01/10 04:40:42;;;;;;;16.08;9.40;;;;;;;;;;5012642;28;20033;-81
2024/01/10 04:43:09;;;;;;;19.20;10.35;;;;;;;;;;5012902;28;20056;-81
2024/01/10 04:45:34;;;;;;;16.27;8.65;;;;;;;;;;5012480;28;20080;-81
2024/01/10 04:48:00;;;;;;;23.77;8.88;;;;;;;;;;5008152;28;20038;-82
2024/01/10 04:50:26;;;;;;;14.60;7.63;;;;;;;;;;5013634;28;20037;-81
2024/01/10 04:52:54;;;;;;;24.15;7.75;;;;;;;;;;4980615;28;20026;-83
2024/01/10 04:55:23;;;;;;;35.47;9.73;;;;;;;;;;5013974;28;20029;-79
2024/01/10 04:57:48;;;;;;;37.63;10.82;;;;;;;;;;5014068;28;20506;-81
2024/01/10 05:00:14;;;;;;;29.25;10.20;;;;;;;;;;5013873;28;20083;-81
2024/01/10 05:02:41;;;;;;;16.17;7.60;;;;;;;;;;5006498;28;20045;-81
2024/01/10 05:05:07;;;;;;;14.75;7.40;;;;;;;;;;4995841;28;20045;-78
2024/01/10 05:07:33;;;;;;;15.40;6.97;;;;;;;;;;5017269;28;20049;-81
2024/01/10 05:09:59;;;;;;;19.27;7.90;;;;;;;;;;5032258;28;20100;-82
2024/01/10 05:12:26;;;;;;;35.05;8.68;;;;;;;;;;5028095;28;20471;-83
2024/01/10 05:14:54;;;;;;;41.63;9.40;;;;;;;;;;5023365;28;20108;-82
2024/01/10 05:17:20;;;;;;;38.70;8.90;;;;;;;;;;5028530;28;20060;-82
2024/01/10 05:19:46;;;;;;;18.90;6.55;;;;;;;;;;5025972;28;20498;-82
2024/01/10 05:22:14;;;;;;;13.05;6.97;;;;;;;;;;5032048;28;20427;-82
2024/01/10 05:24:41;;;;;;;11.55;6.32;;;;;;;;;;5034495;28;20029;-82
2024/01/10 05:27:06;;;;;;;16.75;7.10;;;;;;;;;;5034347;28;20037;-83
2024/01/10 05:29:32;;;;;;;18.50;7.72;;;;;;;;;;5015956;28;20021;-82
2024/01/10 05:31:58;;;;;;;17.45;7.95;;;;;;;;;;5035136;28;20084;-82
2024/01/10 05:34:23;;;;;;;30.42;8.95;;;;;;;;;;5033311;28;20024;-82
2024/01/10 05:36:50;;;;;;;19.55;6.45;;;;;;;;;;5032335;28;20075;-82
2024/01/10 05:39:20;;;;;;;13.05;6.10;;;;;;;;;;5032438;28;20479;-83
2024/01/10 05:41:46;;;;;;;12.73;6.40;;;;;;;;;;5031385;28;20109;-83
2024/01/10 05:44:13;;;;;;;15.75;7.25;;;;;;;;;;5014812;28;20041;-83
2024/01/10 05:46:39;;;;;;;12.00;6.60;;;;;;;;;;5032938;28;20411;-82
2024/01/10 05:49:05;;;;;;;15.38;7.05;;;;;;;;;;5033475;28;20026;-82
2024/01/10 05:51:32;;;;;;;13.07;6.25;;;;;;;;;;5033229;28;20037;-81
2024/01/10 05:53:58;;;;;;;10.57;5.70;;;;;;;;;;5033649;28;20597;-82
2024/01/10 05:56:24;;;;;;;11.98;4.97;;;;;;;;;;5032900;28;20494;-82
2024/01/10 05:58:52;;;;;;;9.13;4.93;;;;;;;;;;5033160;28;20041;-80
2024/01/10 06:01:18;;;;;;;13.77;5.90;;;;;;;;;;5032024;28;20395;-83
2024/01/10 06:03:44;;;;;;;13.13;5.80;;;;;;;;;;5034584;28;20033;-84
2024/01/10 06:06:11;;;;;;;18.95;5.95;;;;;;;;;;5027290;28;20038;-86
2024/01/10 06:08:38;;;;;;;18.73;9.27;;;;;;;;;;4992527;28;20125;-85
2024/01/10 06:11:08;;;;;;;16.90;9.30;;;;;;;;;;5010359;28;20426;-81
2024/01/10 06:13:41;;;;;;;23.02;10.23;;;;;;;;;;5011395;28;20495;-81
2024/01/10 06:16:07;;;;;;;16.60;9.15;;;;;;;;;;5025861;28;20033;-81
2024/01/10 06:18:34;;;;;;;18.20;8.77;;;;;;;;;;5018299;28;20050;-81
2024/01/10 06:20:59;;;;;;;18.35;9.98;;;;;;;;;;5027742;28;20034;-81
2024/01/10 06:23:25;;;;;;;16.25;8.77;;;;;;;;;;5023819;28;20044;-82
2024/01/10 06:25:54;;;;;;;28.48;9.02;;;;;;;;;;5023000;28;20105;-81
2024/01/10 06:28:20;;;;;;;18.35;9.02;;;;;;;;;;5019913;28;20049;-81
2024/01/10 06:30:46;;;;;;;17.23;8.68;;;;;;;;;;5050742;28;20087;-80
2024/01/10 06:33:12;;;;;;;15.70;8.35;;;;;;;;;;5043723;28;20034;-81
2024/01/10 06:35:37;;;;;;;18.60;8.95;;;;;;;;;;5049265;28;20186;-81
2024/01/10 06:38:03;;;;;;;17.30;8.95;;;;;;;;;;5026329;28;20609;-82
2024/01/10 06:40:29;;;;;;;23.08;10.20;;;;;;;;;;5013561;28;20022;-82
2024/01/10 06:42:55;;;;;;;15.32;8.50;;;;;;;;;;5015478;28;20034;-81
2024/01/10 06:45:21;;;;;;;18.40;9.18;;;;;;;;;;5019612;28;20030;-80
2024/01/10 06:47:48;;;;;;;26.50;11.63;;;;;;;;;;5026629;28;20120;-81
2024/01/10 06:50:14;;;;;;;22.98;9.90;;;;;;;;;;5018118;28;20407;-81
2024/01/10 06:52:42;;;;;;;27.35;10.57;;;;;;;;;;5019636;28;20042;-81
2024/01/10 06:55:08;;;;;;;22.63;10.55;;;;;;;;;;5026636;28;20075;-80
2024/01/10 06:57:35;;;;;;;19.00;9.63;;;;;;;;;;5013904;28;20092;-82
2024/01/10 07:00:03;;;;;;;12.75;7.47;;;;;;;;;;5009783;28;20495;-82
2024/01/10 07:02:29;;;;;;;21.98;8.98;;;;;;;;;;5011476;28;20032;-81
2024/01/10 07:04:56;;;;;;;17.42;8.43;;;;;;;;;;5011543;28;20616;-82
2024/01/10 07:07:23;;;;;;;18.40;8.48;;;;;;;;;;5011578;28;20522;-82
2024/01/10 07:09:50;;;;;;;16.83;9.10;;;;;;;;;;5010605;28;20049;-81
2024/01/10 07:12:17;;;;;;;17.05;9.23;;;;;;;;;;5009793;28;20040;-81
2024/01/10 07:14:44;;;;;;;22.73;9.82;;;;;;;;;;5044843;28;20463;-81
2024/01/10 07:17:11;;;;;;;20.70;9.57;;;;;;;;;;5009508;28;20076;-82
2024/01/10 07:19:36;;;;;;;13.90;8.15;;;;;;;;;;5014472;28;20091;-82
2024/01/10 07:22:04;;;;;;;22.63;9.45;;;;;;;;;;5017364;28;20038;-80
2024/01/10 07:24:30;;;;;;;32.85;10.05;;;;;;;;;;5019971;28;20384;-82
2024/01/10 07:26:57;;;;;;;18.23;7.90;;;;;;;;;;5013365;28;20041;-82
2024/01/10 07:29:23;;;;;;;22.60;8.15;;;;;;;;;;5013927;28;20045;-81
2024/01/10 07:31:48;;;;;;;10.95;6.82;;;;;;;;;;5012479;28;20024;-81
2024/01/10 07:34:14;;;;;;;16.58;8.43;;;;;;;;;;5016167;28;20038;-81
2024/01/10 07:36:43;;;;;;;12.00;6.63;;;;;;;;;;5018118;28;20029;-82
2024/01/10 07:39:11;;;;;;;14.68;6.93;;;;;;;;;;5000414;28;20045;-82
2024/01/10 07:41:36;;;;;;;22.05;9.02;;;;;;;;;;5016786;28;20139;-79
2024/01/10 07:44:05;;;;;;;18.75;7.43;;;;;;;;;;5024193;28;20403;-82
2024/01/10 07:46:31;;;;;;;8.80;4.85;;;;;;;;;;4997202;28;20136;-80
2024/01/10 07:48:57;;;;;;;9.73;4.70;;;;;;;;;;5005653;28;20064;-81
2024/01/10 07:51:23;;;;;;;6.47;3.70;;;;;;;;;;5013140;28;20042;-82
2024/01/10 07:53:49;;;;;;;5.53;3.53;;;;;;;;;;5022543;28;20042;-82
2024/01/10 07:56:15;;;;;;;6.15;3.67;;;;;;;;;;5016491;28;20117;-83
2024/01/10 07:58:43;;;;;;;7.53;3.95;;;;;;;;;;5026789;28;20191;-81
2024/01/10 08:01:10;;;;;;;6.13;3.53;;;;;;;;;;5013358;28;20082;-80
2024/01/10 08:03:36;;;;;;;5.80;3.75;;;;;;;;;;5012950;28;20045;-81
2024/01/10 08:06:03;;;;;;;7.88;4.40;;;;;;;;;;4983974;28;20045;-82
2024/01/10 08:08:29;;;;;;;7.10;3.88;;;;;;;;;;5011756;28;20395;-80
2024/01/10 08:10:57;;;;;;;5.53;3.53;;;;;;;;;;4995469;28;20034;-81
2024/01/10 08:13:23;;;;;;;5.88;3.80;;;;;;;;;;5014789;28;20021;-81
2024/01/10 08:15:49;;;;;;;12.43;4.38;;;;;;;;;;5010875;28;20085;-82
2024/01/10 08:18:15;;;;;;;12.80;4.72;;;;;;;;;;5012615;28;20022;-80
2024/01/10 08:20:41;;;;;;;10.35;4.90;;;;;;;;;;5012061;28;20503;-80
2024/01/10 08:23:08;;;;;;;6.03;4.00;;;;;;;;;;5011873;28;20117;-81
2024/01/10 08:25:39;;;;;;;6.63;4.07;;;;;;;;;;5013232;28;20121;-82
2024/01/10 08:28:05;;;;;;;8.32;4.55;;;;;;;;;;5016033;28;20041;-80
2024/01/10 08:30:32;;;;;;;8.82;5.18;;;;;;;;;;5023216;28;20481;-80
2024/01/10 08:32:59;;;;;;;12.77;5.15;;;;;;;;;;5032672;28;20033;-81
2024/01/10 08:35:26;;;;;;;8.02;4.78;;;;;;;;;;5019670;28;20034;-79
2024/01/10 08:37:52;;;;;;;8.18;4.25;;;;;;;;;;5011678;28;20021;-80
2024/01/10 08:40:25;;;;;;;10.27;5.68;;;;;;;;;;5012066;28;20038;-81
2024/01/10 08:42:52;;;;;;;11.15;6.03;;;;;;;;;;5013159;28;20395;-81
2024/01/10 08:45:19;;;;;;;10.80;5.47;;;;;;;;;;5021000;28;20099;-79
2024/01/10 08:47:45;;;;;;;6.95;4.93;;;;;;;;;;5012886;28;20084;-80
2024/01/10 08:50:11;;;;;;;23.77;5.70;;;;;;;;;;5028080;28;20034;-80
2024/01/10 08:52:37;;;;;;;12.93;6.95;;;;;;;;;;5014468;28;20017;-80
2024/01/10 08:55:05;;;;;;;9.50;5.32;;;;;;;;;;5018606;28;20395;-80
2024/01/10 08:57:31;;;;;;;8.43;5.30;;;;;;;;;;5013938;28;20045;-81
2024/01/10 08:59:58;;;;;;;9.88;5.50;;;;;;;;;;5021726;28;20436;-82
2024/01/10 09:02:24;;;;;;;11.57;6.45;;;;;;;;;;5048455;28;20121;-81
2024/01/10 09:04:50;;;;;;;8.13;5.43;;;;;;;;;;4992866;28;20038;-80
2024/01/10 09:07:17;;;;;;;10.55;5.25;;;;;;;;;;5008410;28;20123;-82
2024/01/10 09:09:43;;;;;;;9.98;5.68;;;;;;;;;;5011777;28;20348;-81
2024/01/10 09:12:09;;;;;;;8.95;5.60;;;;;;;;;;5025395;28;20124;-80
2024/01/10 09:14:35;;;;;;;12.52;5.97;;;;;;;;;;5022605;28;20121;-82
2024/01/10 09:17:04;;;;;;;7.13;4.68;;;;;;;;;;5034122;28;20058;-81
2024/01/10 09:19:33;;;;;;;8.38;4.70;;;;;;;;;;5021415;28;20030;-80
2024/01/10 09:21:58;;;;;;;9.10;5.18;;;;;;;;;;5036502;28;20085;-80
2024/01/10 09:24:26;;;;;;;14.23;5.72;;;;;;;;;;5023952;28;20511;-80
2024/01/10 09:26:54;;;;;;;9.23;5.53;;;;;;;;;;4994840;28;20034;-80
2024/01/10 09:29:21;;;;;;;12.35;5.55;;;;;;;;;;5018748;28;20064;-78
2024/01/10 09:31:46;;;;;;;10.77;6.10;;;;;;;;;;5019641;28;20145;-79
2024/01/10 09:34:12;;;;;;;9.52;5.68;;;;;;;;;;5025548;28;20550;-78
2024/01/10 09:36:38;;;;;;;8.20;5.60;;;;;;;;;;5024318;28;20493;-79
2024/01/10 09:39:05;;;;;;;9.55;5.85;;;;;;;;;;5025853;28;20049;-79
2024/01/10 09:41:41;;;;;;;11.45;6.13;;;;;;;;;;5020815;28;20045;-80
2024/01/10 09:44:07;;;;;;;14.70;7.22;;;;;;;;;;5000650;28;20046;-80
2024/01/10 09:46:35;;;;;;;11.10;6.60;;;;;;;;;;5024072;28;20029;-78
2024/01/10 09:49:03;;;;;;;10.48;5.95;;;;;;;;;;5018825;28;20115;-80
2024/01/10 09:51:33;;;;;;;9.88;5.43;;;;;;;;;;5025475;28;20081;-80
2024/01/10 09:54:02;;;;;;;11.55;5.75;;;;;;;;;;5006390;28;20025;-80
2024/01/10 09:56:29;;;;;;;15.38;7.28;;;;;;;;;;5009940;28;20105;-80
2024/01/10 09:58:58;;;;;;;10.07;6.30;;;;;;;;;;5011765;28;20372;-81
2024/01/10 10:01:25;;;;;;;11.02;6.28;;;;;;;;;;5011873;28;20038;-81
2024/01/10 10:03:51;;;;;;;10.88;6.00;;;;;;;;;;5011518;28;20054;-80
2024/01/10 10:06:16;;;;;;;14.35;6.78;;;;;;;;;;5011533;28;20062;-80
2024/01/10 10:08:42;;;;;;;10.70;6.15;;;;;;;;;;5010315;28;20084;-81
2024/01/10 10:11:13;;;;;;;12.85;6.22;;;;;;;;;;5012031;28;20037;-81
2024/01/10 10:13:41;;;;;;;17.98;6.93;;;;;;;;;;5011956;28;20087;-81
2024/01/10 10:16:09;;;;;;;11.90;6.40;;;;;;;;;;5010853;28;20436;-80
2024/01/10 10:18:36;;;;;;;12.15;6.60;;;;;;;;;;5019565;28;20120;-81
2024/01/10 10:21:10;;;;;;;20.45;7.63;;;;;;;;;;5023410;28;20117;-80
2024/01/10 10:23:38;;;;;;;16.63;6.70;;;;;;;;;;4992646;28;20038;-79
2024/01/10 10:26:21;;;;;;;19.38;6.88;;;;;;;;;;5010164;28;20028;-80
2024/01/10 10:28:48;;;;;;;15.23;6.05;;;;;;;;;;5043266;28;20036;-81
2024/01/10 10:31:19;;;;;;;15.00;7.35;;;;;;;;;;4992534;28;20092;-79
2024/01/10 10:33:48;;;;;;;16.27;6.70;;;;;;;;;;5002981;28;20045;-82
2024/01/10 10:36:14;;;;;;;17.50;7.93;;;;;;;;;;5010457;28;20097;-80
2024/01/10 10:38:43;;;;;;;8.65;5.35;;;;;;;;;;5018459;28;20195;-81
2024/01/10 10:41:10;;;;;;;10.60;6.25;;;;;;;;;;5011040;28;20041;-79
2024/01/10 10:43:39;;;;;;;8.63;5.35;;;;;;;;;;5012067;28;20030;-79
2024/01/10 10:46:07;;;;;;;8.57;5.18;;;;;;;;;;5024517;28;20038;-81
2024/01/10 10:48:34;;;;;;;17.35;5.57;;;;;;;;;;5022555;28;20038;-79
2024/01/10 10:51:28;;;;;;;12.55;5.65;;;;;;;;;;5013894;28;20057;-78
2024/01/10 10:53:56;;;;;;;6.97;4.10;;;;;;;;;;5012274;28;20567;-83
2024/01/10 10:56:23;;;;;;;7.85;4.97;;;;;;;;;;5019826;28;20099;-81
2024/01/10 10:58:52;;;;;;;9.82;5.65;;;;;;;;;;5026220;28;20037;-81
2024/01/10 11:01:27;;;;;;;11.68;6.05;;;;;;;;;;5013360;28;20545;-80
2024/01/10 11:03:55;;;;;;;9.85;5.13;;;;;;;;;;5014243;28;20034;-83
2024/01/10 11:06:22;;;;;;;10.73;5.78;;;;;;;;;;5021494;28;20042;-79
2024/01/10 11:09:10;;;;;;;7.35;4.70;;;;;;;;;;5016516;28;20400;-81
2024/01/10 11:12:07;;;;;;;9.00;4.15;;;;;;;;;;5017548;28;20073;-82
2024/01/10 11:15:09;;;;;;;10.55;4.72;;;;;;;;;;5013676;28;20457;-80
2024/01/10 11:17:53;;;;;;;13.60;5.68;;;;;;;;;;5010065;28;20125;-80
2024/01/10 11:20:22;;;;;;;16.70;5.43;;;;;;;;;;5009212;28;20053;-78
2024/01/10 11:23:16;;;;;;;7.05;4.90;;;;;;;;;;5015670;28;20033;-80
2024/01/10 11:25:42;;;;;;;7.28;4.55;;;;;;;;;;5006354;28;20061;-80
2024/01/10 11:28:08;;;;;;;10.98;4.95;;;;;;;;;;5012042;28;20080;-80
2024/01/10 11:30:48;;;;;;;8.38;5.05;;;;;;;;;;5014224;28;20459;-80
2024/01/10 11:33:30;;;;;;;10.63;5.20;;;;;;;;;;5006833;28;20453;-82
2024/01/10 11:36:17;;;;;;;14.57;7.72;;;;;;;;;;5019695;28;20129;-80
2024/01/10 11:38:56;;;;;;;8.48;4.85;;;;;;;;;;5013576;28;20128;-81
2024/01/10 11:41:30;;;;;;;46.47;20.52;;;;;;;;;;5014873;28;20487;-81
2024/01/10 11:47:09;;;;;;;14.60;6.57;;;;;;;;;;4225841;26;20051;-79
2024/01/10 11:49:40;;;;;;;9.07;4.88;;;;;;;;;;4947139;28;20051;-80
2024/01/10 11:52:06;;;;;;;12.30;4.78;;;;;;;;;;4932099;29;20040;-80
2024/01/10 11:54:41;;;;;;;12.45;5.47;;;;;;;;;;4937831;29;20048;-81
2024/01/10 11:57:25;;;;;;;7.68;4.38;;;;;;;;;;4929119;29;20035;-82
2024/01/10 11:59:52;;;;;;;7.55;4.75;;;;;;;;;;4936862;29;20489;-82
2024/01/10 12:02:19;;;;;;;7.18;4.35;;;;;;;;;;4950587;28;20120;-81
2024/01/10 12:04:48;;;;;;;7.88;4.10;;;;;;;;;;4919294;29;20107;-80
2024/01/10 12:07:15;;;;;;;9.93;4.38;;;;;;;;;;4935608;29;20058;-79
2024/01/10 12:09:47;;;;;;;12.60;5.63;;;;;;;;;;4951730;29;20496;-81
2024/01/10 12:12:15;;;;;;;6.65;3.92;;;;;;;;;;4948229;29;20564;-81
2024/01/10 12:14:44;;;;;;;8.10;4.72;;;;;;;;;;4946414;28;20374;-81
2024/01/10 12:17:10;;;;;;;6.05;4.00;;;;;;;;;;4943470;28;20067;-81
2024/01/10 12:19:39;;;;;;;6.75;4.00;;;;;;;;;;4941284;29;20031;-81
2024/01/10 12:22:09;;;;;;;9.35;5.45;;;;;;;;;;4950999;28;20407;-81
2024/01/10 12:24:48;;;;;;;7.25;4.18;;;;;;;;;;4934028;29;20051;-81
2024/01/10 12:27:19;;;;;;;7.18;4.47;;;;;;;;;;4932001;29;20126;-82
2024/01/10 12:29:52;;;;;;;12.23;4.57;;;;;;;;;;4935752;29;20043;-81
2024/01/10 12:32:22;;;;;;;5.88;3.50;;;;;;;;;;4933968;29;20384;-81
2024/01/10 12:34:55;;;;;;;11.80;6.40;;;;;;;;;;4935118;28;20035;-82
2024/01/10 12:37:21;;;;;;;6.15;3.60;;;;;;;;;;4936238;29;20107;-82
2024/01/10 12:39:47;;;;;;;11.30;6.13;;;;;;;;;;4949042;29;20135;-82
2024/01/10 12:42:14;;;;;;;14.35;5.50;;;;;;;;;;4949531;29;20035;-81
2024/01/10 12:44:44;;;;;;;10.57;4.90;;;;;;;;;;4942854;29;20059;-80
2024/01/10 12:47:19;;;;;;;9.00;4.38;;;;;;;;;;4940652;29;20028;-81
2024/01/10 12:49:48;;;;;;;7.85;3.40;;;;;;;;;;4924655;29;20054;-81
2024/01/10 12:52:15;;;;;;;7.47;3.88;;;;;;;;;;4955070;28;20358;-80
2024/01/10 12:54:47;;;;;;;5.75;3.90;;;;;;;;;;4952694;29;20094;-81
2024/01/10 12:57:15;;;;;;;8.57;4.13;;;;;;;;;;4942141;29;20042;-81
2024/01/10 12:59:42;;;;;;;11.57;5.55;;;;;;;;;;4933307;29;20095;-82
2024/01/10 13:02:07;;;;;;;10.80;5.80;;;;;;;;;;4943618;29;20273;-81
2024/01/10 13:04:35;;;;;;;12.75;5.45;;;;;;;;;;4917867;29;20112;-82
2024/01/10 13:07:03;;;;;;;15.68;6.93;;;;;;;;;;4935063;29;20019;-81
2024/01/10 13:09:30;;;;;;;27.00;8.15;;;;;;;;;;4933482;29;20031;-81
2024/01/10 13:11:59;;;;;;;12.75;7.18;;;;;;;;;;4937750;29;20030;-81
2024/01/10 13:14:24;;;;;;;12.88;6.30;;;;;;;;;;4934277;29;20041;-81
2024/01/10 13:16:50;;;;;;;14.77;6.75;;;;;;;;;;4935130;28;20068;-81
2024/01/10 13:19:16;;;;;;;13.20;7.10;;;;;;;;;;4941812;28;20551;-81
2024/01/10 13:21:43;;;;;;;16.38;7.68;;;;;;;;;;4943779;28;20047;-81
2024/01/10 13:24:08;;;;;;;11.10;5.43;;;;;;;;;;4935649;29;20553;-82
2024/01/10 13:26:35;;;;;;;13.20;5.93;;;;;;;;;;4941266;29;20050;-83
2024/01/10 13:29:02;;;;;;;8.80;5.22;;;;;;;;;;4935363;29;20031;-83
2024/01/10 13:31:28;;;;;;;13.25;6.22;;;;;;;;;;4941610;29;20046;-82
2024/01/10 13:33:55;;;;;;;14.85;6.97;;;;;;;;;;4945769;28;20046;-81
2024/01/10 13:36:21;;;;;;;9.60;5.70;;;;;;;;;;4943465;29;20099;-83
2024/01/10 13:38:48;;;;;;;10.68;5.03;;;;;;;;;;4941154;29;20055;-80
2024/01/10 13:41:15;;;;;;;17.92;6.80;;;;;;;;;;4946597;28;20105;-81
2024/01/10 13:43:41;;;;;;;10.35;5.25;;;;;;;;;;4946236;28;20445;-80
2024/01/10 13:46:08;;;;;;;9.07;5.18;;;;;;;;;;4944583;28;20544;-81
2024/01/10 13:48:35;;;;;;;12.05;6.13;;;;;;;;;;4935735;29;20039;-83
2024/01/10 13:51:00;;;;;;;13.25;5.65;;;;;;;;;;4950980;29;20027;-82
2024/01/10 13:53:28;;;;;;;10.45;6.00;;;;;;;;;;4937582;29;20610;-85
2024/01/10 13:55:55;;;;;;;9.10;5.25;;;;;;;;;;4943990;29;20496;-80
2024/01/10 13:58:23;;;;;;;7.50;5.00;;;;;;;;;;4945510;29;20083;-79
2024/01/10 14:00:49;;;;;;;9.25;5.70;;;;;;;;;;4947226;28;20039;-76
2024/01/10 14:03:16;;;;;;;11.38;5.43;;;;;;;;;;4952604;28;20454;-78
2024/01/10 14:05:41;;;;;;;9.50;5.35;;;;;;;;;;4941698;29;20397;-80
2024/01/10 14:08:10;;;;;;;10.10;6.25;;;;;;;;;;4924751;29;20055;-79
2024/01/10 14:10:38;;;;;;;8.15;5.43;;;;;;;;;;4941848;29;20120;-78
2024/01/10 14:13:07;;;;;;;13.05;5.80;;;;;;;;;;4934103;29;20123;-78
2024/01/10 14:15:33;;;;;;;11.55;5.35;;;;;;;;;;4941142;28;20481;-77
2024/01/10 14:17:59;;;;;;;8.50;4.68;;;;;;;;;;4933812;29;20035;-76
2024/01/10 14:20:25;;;;;;;9.48;5.25;;;;;;;;;;4936276;29;20489;-76
2024/01/10 14:22:51;;;;;;;14.80;6.07;;;;;;;;;;4941574;29;20086;-77
2024/01/10 14:25:17;;;;;;;9.18;4.97;;;;;;;;;;4944524;29;20036;-77
2024/01/10 14:27:43;;;;;;;14.82;6.72;;;;;;;;;;4952655;28;20019;-77
2024/01/10 14:30:10;;;;;;;17.13;7.30;;;;;;;;;;4967353;28;20122;-77
2024/01/10 14:32:37;;;;;;;9.95;6.38;;;;;;;;;;4953214;28;20441;-76
2024/01/10 14:35:07;;;;;;;11.60;6.03;;;;;;;;;;4933039;28;20031;-77
2024/01/10 14:37:36;;;;;;;26.42;6.43;;;;;;;;;;4932067;29;20023;-80
2024/01/10 14:40:03;;;;;;;15.25;6.57;;;;;;;;;;4933498;29;20043;-77